Aeroporto :
LOGIN :

Iscrizione | Disclaimer

   EN    FR    IT 

 










Sommario :    VFR   VFR Marginale   IFR   IFR Intensivo   IFR Molto Intensivo
Visibilità : 
Base nubi : 
>= 8 km
>= 3000ft
5 / 8 km
1000 / 3000 ft
1500m / 5 km
500 / 1000 ft
800 / 1500m
200 / 500 ft
< 800m
< 200 ft
Simboli :   Temporali  Nebbia  Neve Forte  Precipitazioni Forti  Vento > 20 kt
SIGMETs :   Varie  Temporali  Ghiacco  Turbolenza  Onda orograficha  Ceneri Vulcaniche






- Altitudine del aeroporto : 357 ft
- Codice IATA : TUF


LFOT - Tours

ULTIMO METAR :
  • 232030Z AUTO 24009KT 9999 OVC007 11/10 Q1029 TEMPO 3000 -DZ BKN003

METARs OBSOLETI :
  • 232000Z AUTO 25009KT 9000 OVC006 11/10 Q1029 TEMPO 3000 -DZ BKN003
  • 231930Z AUTO 25009KT 9999 OVC007 11/10 Q1029 TEMPO 3000 -DZ BKN003
  • 231900Z AUTO 24012KT 9999 OVC008 11/10 Q1029 TEMPO 3000 -DZ BKN003
  • 231830Z AUTO 24013KT 9999 OVC009 11/10 Q1029 TEMPO 3000 -DZ BKN003
  • 231800Z AUTO 23014KT 200V270 9999 OVC010 11/10 Q1029 BECMG BKN004

TAF TAF LFOT
Valido dal 23 a 18 ore il 24 a 18 ore UTC


231700Z 2318/2418 23012KT 9999 OVC008
BECMG 2318/2320 BKN004
TEMPO 2320/2407 3000 -DZ BKN003
BECMG 2407/2409 BKN008
BECMG 2411/2413 BKN013
TEMPO 2414/2418 BKN016
PROB30
TEMPO 2415/2418 24015G30KT



MetMap, La meteo Aeronautica in un colpo d'occhio ! - Copyright ORBIFLY Dicembre 2007 - Disclaimer

ORBIFLY MET'MAP TEAM :

Programmazione e sviluppo : Alexandra Zaïnal
Concezione : Baudouin d'Aumeries
Aiuto per la programmazione : Marc-Olivier Méhu
Supporto tecnico e logistico : Manuel Goepfert
Aiuto per la traduzione : Arnaldo La Scala

Contatto : metmap@orbifly.com




FONTI E CREDITI :

   NOAA